Portada
METAR-TAF:

METAR-TAF

Aeroports :

Bangalore, Índia

latitud: 12-57-00N, longitud: 077-40-06E, altitud: 888 m

Observació

L'informe es va fer fa 2 hores i 44 minuts, a les 15:30 UTC
Vent 5 kt del Sud-Est
Temperatura 29°C
Humitat 35%
Pressió 1014 hPa
Visibilitat: 6000 m

METAR: VOBG 031530Z 14005KT 6000 NSC 29/12 Q1014 NOSIG

Hora: 23:44 (18:14 UTC)

Pronòstic

L'informe es va fer fa 1 hora i 14 minuts, a les 17:00 UTC
Pronòstic vàlid del 03 a les 18 UTC al 04 a les 03 UTC
Vent 5 kt del Est/Sud-Est
Visibilitat: 6000 m
Escasses núvols a una alçada de 1200 ft
Evolucionant progressivament
l' 03 a les 22 UTC al 03 a les 23 UTC
Vent 2 kt amb direcció variable
Temporalment
l' 04 a les 00 UTC al 04 a les 03 UTC
Visibilitat: 4000 m
Escasses núvols a una alçada de 1200 ft
boirina

TAF: VOBG 031700Z 0318/0403 12005KT 6000 FEW012 BECMG 0322/0323 VRB02KT TEMPO 0400/0403 4000 BR FEW012

Observacions i pronòstics meteorològics de més de 4000 aeroports (METAR i TAF).

Les estacions disponibles són els punts grocs i vermells al mapa.

Posi el ratolí al punt desitjat per veure el nom de l'estació.

Feu clic per veure les observacions i els pronòstics meteorològics.

Per canviar el mapa: feu clic els botons verds amb una creu de color negre per apropar; al botó verd amb un guió per allunyar la imatge; o en les fletxes verdes per a mapes adjacents.


METAR-TAF: